Pagrindinis puslapis
METAR-TAF:

METAR-TAF

Oro uostai :

Varadero, Kuba

platuma: 23-08N, ilguma: 081-17W, Aukštis: 3 m

Dabartinis oras

Ataskaita buvo paskelbta 1 valandą ir 11 minutes, ne 22:50 UTC
Vėjas 10 kt iš Šiaurės
Temperatūra 28°C
Drėgmė 70%
Slėgis 1012 hPa
Matomumas: 9000 m
Mažai debesys ne aukštis 3000 ft

METAR: MUVR 092250Z 36010KT 9000 FEW030 28/22 Q1012

Laikas: 20:01 (00:01 UTC)

Prognozė

Ataskaita buvo paskelbta 1 valandą ir 1 minutes, ne 23:00 UTC
Prognozė galioja nuo 10 metu 00 UTC su 10 metu 24 UTC
Vėjas 9 kt iš Šiaurės
Matomumas: 9000 m
Mažai debesys ne aukštis 2000 ft
Tapsmas
nuo 10 metu 01 UTC su 10 metu 04 UTC
Vėjas 3 kt nuo kintamojo kryptimis
Tapsmas
nuo 10 metu 13 UTC su 10 metu 16 UTC
Vėjas 8 kt iš Šiaurės

TAF: MUVR 092300Z 1000/1024 35009KT 9000 FEW020 BECMG 1001/1004 VRB03KT BECMG 1013/1016 35008KT

Orai ataskaitas ir orų prognozės (METAR, TAF).

turimą stotys yra geltonos ir raudonos taškus žemėlapyje.

Perkelti pele per norėdami pamatyti stoties vardą.

Tada spustelėkite, norėdami matyti oro stebėjimo ir prognozės.

Norėdami pakeisti žemėlapį: spustelėkite ant žalios mygtukų su juodo kryžiaus žemyn,; žalią mygtuką su brūkšneliu, jei norite nutolinti; arba žalių rodyklių gretimoms žemėlapius.


METAR-TAF: